Blackbird — WDJ4307 — position and weather

sailwx.info

Track history (hours):
 
Tides and Currents Weather Stations Pressure Air Temp Water Temp Dewpoint Dewpoint Depression Visibility Wind Speed Wind Dir Waves Ship Positions

Blackbird

Owner: PropSF, LLC, Alameda, CA. More information available from US FCC via Universal Licensing System and Coast Guard Vessel Documentation Center.

Last reported at 2018-Feb-24 02:00 UTC. Time now 2018-Feb-25 01:38 UTC.
Position N 37°51' W 122°19'.

Length 17 m; draft 1 m.

Type: Passenger vessel. MMSI: 367776390.

Date/timePositionNaut miles runAvg speedWind from/ knotsBaromVisibWave heightAir tempDewpointWater temp
2018-Feb-24 02:00N 37°51' W 122°19'3 5.6
2018-Feb-24 01:31N 37°49' W 122°21'918.1
2018-Feb-24 01:00N 37°40' W 122°23'612.5
2018-Feb-24 00:31N 37°46' W 122°22'917.5
2018-Feb-24 00:00N 37°55' W 122°21'917.3
2018-Feb-23 23:31N 37°46' W 122°22'612.7
2018-Feb-23 23:00N 37°40' W 122°23'4 8.0
2018-Feb-23 22:31N 37°44' W 122°21'714.0
2018-Feb-23 22:00N 37°50' W 122°19'0 0.0
2018-Feb-23 19:24N 37°50' W 122°19'0 0.0
2018-Feb-23 19:00N 37°50' W 122°19'0 0.0
2018-Feb-23 18:30N 37°50' W 122°19'0 0.0
2018-Feb-23 18:00N 37°50' W 122°19'0 0.0
2018-Feb-23 17:30N 37°50' W 122°19'1 1.8
2018-Feb-23 17:00N 37°50' W 122°20'816.9
2018-Feb-23 16:30N 37°42' W 122°21'2 4.3
2018-Feb-23 16:01N 37°40' W 122°22'1223.4
2018-Feb-23 15:30N 37°52' W 122°20'4 8.5
2018-Feb-23 15:01N 37°48' W 122°22'815.7
2018-Feb-23 14:31N 37°40' W 122°22'1326.2
2018-Feb-23 14:01N 37°53' W 122°24'3 5.4
2018-Feb-23 13:30N 37°55' W 122°21'5 9.2
2018-Feb-23 13:01N 37°51' W 122°19'0 0.0
2018-Feb-23 02:03N 37°51' W 122°19'113.8
2018-Feb-23 02:00N 37°51' W 122°19'3 6.3
2018-Feb-23 01:31N 37°49' W 122°22'917.3
2018-Feb-23 01:00N 37°40' W 122°23'815.7
2018-Feb-23 00:30N 37°48' W 122°22'714.0
2018-Feb-23 00:01N 37°55' W 122°21'918.9
2018-Feb-22 23:31N 37°45' W 122°22'510.6
2018-Feb-22 23:00N 37°40' W 122°23'3 6.8
2018-Feb-22 22:30N 37°43' W 122°21'815.5
2018-Feb-22 22:01N 37°50' W 122°19'0 0.3
2018-Feb-22 21:31N 37°50' W 122°19'0 0.0
2018-Feb-22 19:19N 37°50' W 122°19'0 0.0
2018-Feb-22 19:00N 37°50' W 122°19'0 0.0
2018-Feb-22 18:31N 37°50' W 122°19'0 0.0
2018-Feb-22 18:00N 37°50' W 122°19'0 0.0
2018-Feb-22 17:31N 37°50' W 122°19'0 0.5
2018-Feb-22 17:00N 37°51' W 122°19'815.4
2018-Feb-22 16:30N 37°43' W 122°21'2 4.9
2018-Feb-22 16:01N 37°41' W 122°22'1122.2
2018-Feb-22 15:30N 37°52' W 122°20'713.9
2018-Feb-22 15:01N 37°45' W 122°21'3 6.4
2018-Feb-22 14:30N 37°42' W 122°21'1223.3
2018-Feb-22 14:00N 37°53' W 122°24'3 5.1
2018-Feb-22 13:31N 37°55' W 122°21'5 9.3
2018-Feb-22 13:00N 37°51' W 122°19'0 0.0
2018-Feb-22 01:59N 37°51' W 122°19'3 6.5
2018-Feb-22 01:30N 37°50' W 122°23'1020.6
2018-Feb-22 01:00N 37°40' W 122°23'815.7
2018-Feb-22 00:31N 37°48' W 122°22'714.1
2018-Feb-22 00:01N 37°55' W 122°21'1019.9
2018-Feb-21 23:30N 37°45' W 122°22'5 9.8
2018-Feb-21 23:00N 37°40' W 122°23'4 8.5
2018-Feb-21 22:31N 37°44' W 122°21'711.6
2018-Feb-21 21:55N 37°50' W 122°19'0 0.0
2018-Feb-21 21:30N 37°50' W 122°19'0 0.0
2018-Feb-21 21:00N 37°50' W 122°19'0 0.0
2018-Feb-21 20:30N 37°50' W 122°19'0 0.0
2018-Feb-21 20:00N 37°50' W 122°19'0 0.0
2018-Feb-21 19:30N 37°50' W 122°19'0 0.0
2018-Feb-21 19:00N 37°50' W 122°19'0 0.0
2018-Feb-21 18:30N 37°50' W 122°19'0 0.0
2018-Feb-21 18:00N 37°50' W 122°19'0 0.0
2018-Feb-21 17:30N 37°50' W 122°19'0 0.0
2018-Feb-21 17:00N 37°50' W 122°19'611.6
2018-Feb-21 16:30N 37°45' W 122°21'4 8.0
2018-Feb-21 16:01N 37°41' W 122°22'1122.2
2018-Feb-21 15:31N 37°52' W 122°19'4 7.0
2018-Feb-21 15:00N 37°49' W 122°21'917.1
2018-Feb-21 14:30N 37°40' W 122°22'1224.6
2018-Feb-21 14:01N 37°52' W 122°24'3 6.3
2018-Feb-21 13:30N 37°55' W 122°21'4 9.0
2018-Feb-21 13:01N 37°51' W 122°19'1 0.0
2018-Feb-21 02:05N 37°50' W 122°19'112.8
2018-Feb-21 02:01N 37°51' W 122°20'3 5.6
2018-Feb-21 01:31N 37°49' W 122°23'918.3
2018-Feb-21 01:00N 37°40' W 122°23'815.4
2018-Feb-21 00:30N 37°48' W 122°21'714.7
2018-Feb-21 00:00N 37°55' W 122°21'918.9
2018-Feb-20 23:31N 37°45' W 122°22'611.1
2018-Feb-20 23:00N 37°40' W 122°22'3 5.2
2018-Feb-20 22:30N 37°42' W 122°21'816.4
2018-Feb-20 22:01N 37°50' W 122°19'0 0.0
2018-Feb-20 19:20N 37°50' W 122°19'0 0.0
2018-Feb-20 19:00N 37°50' W 122°19'0 0.0
2018-Feb-20 18:30N 37°50' W 122°19'0 0.0
2018-Feb-20 18:00N 37°50' W 122°19'0 0.0
2018-Feb-20 17:30N 37°50' W 122°19'0 0.4
2018-Feb-20 17:00N 37°51' W 122°19'816.6
2018-Feb-20 16:30N 37°43' W 122°21'3 5.3
2018-Feb-20 16:00N 37°40' W 122°22'1224.0
2018-Feb-20 15:30N 37°52' W 122°19'3 6.8
2018-Feb-20 15:01N 37°49' W 122°21'917.8
2018-Feb-20 14:30N 37°40' W 122°22'1325.2
2018-Feb-20 14:00N 37°52' W 122°24'3 6.0
2018-Feb-20 13:31N 37°55' W 122°21'5 9.1
2018-Feb-20 13:00N 37°51' W 122°19'0 0.0
2018-Feb-20 02:02N 37°51' W 122°19'0 5.0
2018-Feb-20 02:01N 37°51' W 122°19'3 6.6
2018-Feb-20 01:31N 37°50' W 122°23'1020.0
2018-Feb-20 01:00N 37°40' W 122°23'815.0
2018-Feb-20 00:31N 37°47' W 122°22'714.9
2018-Feb-20 00:00N 37°55' W 122°21'1020.0
2018-Feb-19 23:31N 37°45' W 122°21'510.2
2018-Feb-19 23:00N 37°40' W 122°21'1 2.4
2018-Feb-19 22:31N 37°41' W 122°22'1019.3
2018-Feb-19 22:00N 37°50' W 122°19'0 0.0
2018-Feb-19 17:34N 37°50' W 122°19'0 0.0
2018-Feb-19 17:30N 37°50' W 122°19'1 1.5
2018-Feb-19 17:01N 37°51' W 122°20'714.1
2018-Feb-19 16:31N 37°44' W 122°21'4 7.4
2018-Feb-19 16:00N 37°40' W 122°22'1223.7
2018-Feb-19 15:30N 37°52' W 122°19'3 6.0
2018-Feb-19 15:01N 37°49' W 122°21'918.8
2018-Feb-19 14:30N 37°40' W 122°22'1224.9
2018-Feb-19 14:01N 37°52' W 122°24'3 6.4
2018-Feb-19 13:31N 37°55' W 122°21'5 9.5
2018-Feb-19 13:00N 37°51' W 122°19'  
2018-Feb-17 02:01N 37°51' W 122°19'0 1.4
2018-Feb-17 02:01N 37°51' W 122°19'2 5.0
2018-Feb-17 01:31N 37°50' W 122°22'1019.6
2018-Feb-17 01:00N 37°40' W 122°23'611.5
2018-Feb-17 00:31N 37°45' W 122°22'918.2
2018-Feb-17 00:00N 37°55' W 122°21'816.0
2018-Feb-16 23:31N 37°47' W 122°22'713.5
2018-Feb-16 23:00N 37°40' W 122°23'1019.1
2018-Feb-16 22:30N 37°49' W 122°21'2 4.3
2018-Feb-16 21:59N 37°50' W 122°19'0 0.0
2018-Feb-16 17:25N 37°50' W 122°19'923.0
2018-Feb-16 17:00N 37°41' W 122°22'612.7
2018-Feb-16 16:31N 37°48' W 122°22'5 9.4
2018-Feb-16 16:00N 37°52' W 122°19'1122.7
2018-Feb-16 15:30N 37°41' W 122°22'713.5
2018-Feb-16 15:00N 37°48' W 122°23'917.5
2018-Feb-16 14:30N 37°55' W 122°29'1224.7
2018-Feb-16 14:01N 38°03' W 122°17'6 9.9
2018-Feb-16 13:24N 38°02' W 122°09'923.6
2018-Feb-16 13:00N 38°01' W 122°21'1021.1
2018-Feb-16 12:31N 37°51' W 122°22'3 0.3
2018-Feb-16 03:33N 37°50' W 122°19'0 0.0
2018-Feb-16 03:31N 37°50' W 122°19'2 3.3
2018-Feb-16 03:01N 37°52' W 122°19'1122.7
2018-Feb-16 02:30N 37°41' W 122°22'1 2.5
2018-Feb-16 02:00N 37°40' W 122°23'1020.0
2018-Feb-16 01:31N 37°50' W 122°23'1326.4
2018-Feb-16 01:00N 38°03' W 122°19'5 9.6
2018-Feb-16 00:30N 38°04' W 122°13'1325.7
2018-Feb-16 00:01N 37°57' W 122°27'1020.1
2018-Feb-15 23:31N 37°47' W 122°23'815.3
2018-Feb-15 23:00N 37°40' W 122°23'11 2.0
2018-Feb-15 17:27N 37°50' W 122°19'1022.3
2018-Feb-15 17:00N 37°41' W 122°22'714.1
2018-Feb-15 16:31N 37°48' W 122°21'4 8.9
2018-Feb-15 16:00N 37°52' W 122°19'1224.5
2018-Feb-15 15:31N 37°40' W 122°22'917.1
2018-Feb-15 15:00N 37°48' W 122°23'815.3
2018-Feb-15 14:31N 37°55' W 122°29'1425.3
2018-Feb-15 13:58N 38°04' W 122°15'5 9.5
2018-Feb-15 13:28N 38°02' W 122°09'1122.8
2018-Feb-15 13:00N 38°01' W 122°23'1121.2
2018-Feb-15 12:30N 37°51' W 122°20'1 0.1
2018-Feb-15 03:41N 37°50' W 122°19'0 0.0
2018-Feb-15 03:30N 37°50' W 122°19'2 3.4
2018-Feb-15 03:01N 37°52' W 122°19'1223.6
2018-Feb-15 02:30N 37°40' W 122°22'0 0.3
2018-Feb-15 02:00N 37°40' W 122°22'1529.5
2018-Feb-15 01:30N 37°55' W 122°25'1224.0
2018-Feb-15 01:01N 38°04' W 122°15'1 2.4
2018-Feb-15 00:30N 38°03' W 122°16'1324.6
2018-Feb-14 23:59N 37°55' W 122°28'1122.6
2018-Feb-14 23:31N 37°45' W 122°22'6 9.3
2018-Feb-14 22:54N 37°40' W 122°23'1 1.9
2018-Feb-14 22:31N 37°40' W 122°22'1121.3
2018-Feb-14 22:00N 37°50' W 122°19'0 0.0
2018-Feb-14 17:30N 37°50' W 122°19'1021.3
2018-Feb-14 17:01N 37°40' W 122°22'714.6
2018-Feb-14 16:30N 37°48' W 122°22'5 9.4
2018-Feb-14 16:01N 37°52' W 122°19'1122.6
2018-Feb-14 15:30N 37°41' W 122°22'714.3
2018-Feb-14 15:01N 37°48' W 122°23'816.6
2018-Feb-14 14:30N 37°55' W 122°29'1224.3
2018-Feb-14 14:00N 38°03' W 122°17'610.2
2018-Feb-14 13:25N 38°02' W 122°10'922.6
2018-Feb-14 13:01N 38°02' W 122°21'1020.4
2018-Feb-14 12:31N 37°51' W 122°22'3 0.3
2018-Feb-14 03:37N 37°50' W 122°19'0 0.4
2018-Feb-14 03:30N 37°50' W 122°19'2 3.4
2018-Feb-14 03:01N 37°52' W 122°19'1223.9
2018-Feb-14 02:31N 37°40' W 122°22'1 1.2
2018-Feb-14 02:00N 37°40' W 122°23'  
Track history (hours):
 
Tides and Currents Weather Stations Pressure Air Temp Water Temp Dewpoint Dewpoint Depression Visibility Wind Speed Wind Dir Waves Ship Positions

Blackbird

Owner: PropSF, LLC, Alameda, CA. More information available from US FCC via Universal Licensing System and Coast Guard Vessel Documentation Center.

Last reported at 2018-Feb-24 02:00 UTC. Time now 2018-Feb-25 01:38 UTC.
Position N 37°51' W 122°19'.

Length 17 m; draft 1 m.

Type: Passenger vessel. MMSI: 367776390.

Date/timePositionNaut miles runAvg speedWind from/ knotsBaromVisibWave heightAir tempDewpointWater temp
2018-Feb-24 02:00N 37°51' W 122°19'3 5.6
2018-Feb-24 01:31N 37°49' W 122°21'918.1
2018-Feb-24 01:00N 37°40' W 122°23'612.5
2018-Feb-24 00:31N 37°46' W 122°22'917.5
2018-Feb-24 00:00N 37°55' W 122°21'917.3
2018-Feb-23 23:31N 37°46' W 122°22'612.7
2018-Feb-23 23:00N 37°40' W 122°23'4 8.0
2018-Feb-23 22:31N 37°44' W 122°21'714.0
2018-Feb-23 22:00N 37°50' W 122°19'0 0.0
2018-Feb-23 19:24N 37°50' W 122°19'0 0.0
2018-Feb-23 19:00N 37°50' W 122°19'0 0.0
2018-Feb-23 18:30N 37°50' W 122°19'0 0.0
2018-Feb-23 18:00N 37°50' W 122°19'0 0.0
2018-Feb-23 17:30N 37°50' W 122°19'1 1.8
2018-Feb-23 17:00N 37°50' W 122°20'816.9
2018-Feb-23 16:30N 37°42' W 122°21'2 4.3
2018-Feb-23 16:01N 37°40' W 122°22'1223.4
2018-Feb-23 15:30N 37°52' W 122°20'4 8.5
2018-Feb-23 15:01N 37°48' W 122°22'815.7
2018-Feb-23 14:31N 37°40' W 122°22'1326.2
2018-Feb-23 14:01N 37°53' W 122°24'3 5.4
2018-Feb-23 13:30N 37°55' W 122°21'5 9.2
2018-Feb-23 13:01N 37°51' W 122°19'0 0.0
2018-Feb-23 02:03N 37°51' W 122°19'113.8
2018-Feb-23 02:00N 37°51' W 122°19'3 6.3
2018-Feb-23 01:31N 37°49' W 122°22'917.3
2018-Feb-23 01:00N 37°40' W 122°23'815.7
2018-Feb-23 00:30N 37°48' W 122°22'714.0
2018-Feb-23 00:01N 37°55' W 122°21'918.9
2018-Feb-22 23:31N 37°45' W 122°22'510.6
2018-Feb-22 23:00N 37°40' W 122°23'3 6.8
2018-Feb-22 22:30N 37°43' W 122°21'815.5
2018-Feb-22 22:01N 37°50' W 122°19'0 0.3
2018-Feb-22 21:31N 37°50' W 122°19'0 0.0
2018-Feb-22 19:19N 37°50' W 122°19'0 0.0
2018-Feb-22 19:00N 37°50' W 122°19'0 0.0
2018-Feb-22 18:31N 37°50' W 122°19'0 0.0
2018-Feb-22 18:00N 37°50' W 122°19'0 0.0
2018-Feb-22 17:31N 37°50' W 122°19'0 0.5
2018-Feb-22 17:00N 37°51' W 122°19'815.4
2018-Feb-22 16:30N 37°43' W 122°21'2 4.9
2018-Feb-22 16:01N 37°41' W 122°22'1122.2
2018-Feb-22 15:30N 37°52' W 122°20'713.9
2018-Feb-22 15:01N 37°45' W 122°21'3 6.4
2018-Feb-22 14:30N 37°42' W 122°21'1223.3
2018-Feb-22 14:00N 37°53' W 122°24'3 5.1
2018-Feb-22 13:31N 37°55' W 122°21'5 9.3
2018-Feb-22 13:00N 37°51' W 122°19'0 0.0
2018-Feb-22 01:59N 37°51' W 122°19'3 6.5
2018-Feb-22 01:30N 37°50' W 122°23'1020.6
2018-Feb-22 01:00N 37°40' W 122°23'815.7
2018-Feb-22 00:31N 37°48' W 122°22'714.1
2018-Feb-22 00:01N 37°55' W 122°21'1019.9
2018-Feb-21 23:30N 37°45' W 122°22'5 9.8
2018-Feb-21 23:00N 37°40' W 122°23'4 8.5
2018-Feb-21 22:31N 37°44' W 122°21'711.6
2018-Feb-21 21:55N 37°50' W 122°19'0 0.0
2018-Feb-21 21:30N 37°50' W 122°19'0 0.0
2018-Feb-21 21:00N 37°50' W 122°19'0 0.0
2018-Feb-21 20:30N 37°50' W 122°19'0 0.0
2018-Feb-21 20:00N 37°50' W 122°19'0 0.0
2018-Feb-21 19:30N 37°50' W 122°19'0 0.0
2018-Feb-21 19:00N 37°50' W 122°19'0 0.0
2018-Feb-21 18:30N 37°50' W 122°19'0 0.0
2018-Feb-21 18:00N 37°50' W 122°19'0 0.0
2018-Feb-21 17:30N 37°50' W 122°19'0 0.0
2018-Feb-21 17:00N 37°50' W 122°19'611.6
2018-Feb-21 16:30N 37°45' W 122°21'4 8.0
2018-Feb-21 16:01N 37°41' W 122°22'1122.2
2018-Feb-21 15:31N 37°52' W 122°19'4 7.0
2018-Feb-21 15:00N 37°49' W 122°21'917.1
2018-Feb-21 14:30N 37°40' W 122°22'1224.6
2018-Feb-21 14:01N 37°52' W 122°24'3 6.3
2018-Feb-21 13:30N 37°55' W 122°21'4 9.0
2018-Feb-21 13:01N 37°51' W 122°19'1 0.0
2018-Feb-21 02:05N 37°50' W 122°19'112.8
2018-Feb-21 02:01N 37°51' W 122°20'3 5.6
2018-Feb-21 01:31N 37°49' W 122°23'918.3
2018-Feb-21 01:00N 37°40' W 122°23'815.4
2018-Feb-21 00:30N 37°48' W 122°21'714.7
2018-Feb-21 00:00N 37°55' W 122°21'918.9
2018-Feb-20 23:31N 37°45' W 122°22'611.1
2018-Feb-20 23:00N 37°40' W 122°22'3 5.2
2018-Feb-20 22:30N 37°42' W 122°21'816.4
2018-Feb-20 22:01N 37°50' W 122°19'0 0.0
2018-Feb-20 19:20N 37°50' W 122°19'0 0.0
2018-Feb-20 19:00N 37°50' W 122°19'0 0.0
2018-Feb-20 18:30N 37°50' W 122°19'0 0.0
2018-Feb-20 18:00N 37°50' W 122°19'0 0.0
2018-Feb-20 17:30N 37°50' W 122°19'0 0.4
2018-Feb-20 17:00N 37°51' W 122°19'816.6
2018-Feb-20 16:30N 37°43' W 122°21'3 5.3
2018-Feb-20 16:00N 37°40' W 122°22'1224.0
2018-Feb-20 15:30N 37°52' W 122°19'3 6.8
2018-Feb-20 15:01N 37°49' W 122°21'917.8
2018-Feb-20 14:30N 37°40' W 122°22'1325.2
2018-Feb-20 14:00N 37°52' W 122°24'3 6.0
2018-Feb-20 13:31N 37°55' W 122°21'5 9.1
2018-Feb-20 13:00N 37°51' W 122°19'0 0.0
2018-Feb-20 02:02N 37°51' W 122°19'0 5.0
2018-Feb-20 02:01N 37°51' W 122°19'3 6.6
2018-Feb-20 01:31N 37°50' W 122°23'1020.0
2018-Feb-20 01:00N 37°40' W 122°23'815.0
2018-Feb-20 00:31N 37°47' W 122°22'714.9
2018-Feb-20 00:00N 37°55' W 122°21'1020.0
2018-Feb-19 23:31N 37°45' W 122°21'510.2
2018-Feb-19 23:00N 37°40' W 122°21'1 2.4
2018-Feb-19 22:31N 37°41' W 122°22'1019.3
2018-Feb-19 22:00N 37°50' W 122°19'0 0.0
2018-Feb-19 17:34N 37°50' W 122°19'0 0.0
2018-Feb-19 17:30N 37°50' W 122°19'1 1.5
2018-Feb-19 17:01N 37°51' W 122°20'714.1
2018-Feb-19 16:31N 37°44' W 122°21'4 7.4
2018-Feb-19 16:00N 37°40' W 122°22'1223.7
2018-Feb-19 15:30N 37°52' W 122°19'3 6.0
2018-Feb-19 15:01N 37°49' W 122°21'918.8
2018-Feb-19 14:30N 37°40' W 122°22'1224.9
2018-Feb-19 14:01N 37°52' W 122°24'3 6.4
2018-Feb-19 13:31N 37°55' W 122°21'5 9.5
2018-Feb-19 13:00N 37°51' W 122°19'  
2018-Feb-17 02:01N 37°51' W 122°19'0 1.4
2018-Feb-17 02:01N 37°51' W 122°19'2 5.0
2018-Feb-17 01:31N 37°50' W 122°22'1019.6
2018-Feb-17 01:00N 37°40' W 122°23'611.5
2018-Feb-17 00:31N 37°45' W 122°22'918.2
2018-Feb-17 00:00N 37°55' W 122°21'816.0
2018-Feb-16 23:31N 37°47' W 122°22'713.5
2018-Feb-16 23:00N 37°40' W 122°23'1019.1
2018-Feb-16 22:30N 37°49' W 122°21'2 4.3
2018-Feb-16 21:59N 37°50' W 122°19'0 0.0
2018-Feb-16 17:25N 37°50' W 122°19'923.0
2018-Feb-16 17:00N 37°41' W 122°22'612.7
2018-Feb-16 16:31N 37°48' W 122°22'5 9.4
2018-Feb-16 16:00N 37°52' W 122°19'1122.7
2018-Feb-16 15:30N 37°41' W 122°22'713.5
2018-Feb-16 15:00N 37°48' W 122°23'917.5
2018-Feb-16 14:30N 37°55' W 122°29'1224.7
2018-Feb-16 14:01N 38°03' W 122°17'6 9.9
2018-Feb-16 13:24N 38°02' W 122°09'923.6
2018-Feb-16 13:00N 38°01' W 122°21'1021.1
2018-Feb-16 12:31N 37°51' W 122°22'3 0.3
2018-Feb-16 03:33N 37°50' W 122°19'0 0.0
2018-Feb-16 03:31N 37°50' W 122°19'2 3.3
2018-Feb-16 03:01N 37°52' W 122°19'1122.7
2018-Feb-16 02:30N 37°41' W 122°22'1 2.5
2018-Feb-16 02:00N 37°40' W 122°23'1020.0
2018-Feb-16 01:31N 37°50' W 122°23'1326.4
2018-Feb-16 01:00N 38°03' W 122°19'5 9.6
2018-Feb-16 00:30N 38°04' W 122°13'1325.7
2018-Feb-16 00:01N 37°57' W 122°27'1020.1
2018-Feb-15 23:31N 37°47' W 122°23'815.3
2018-Feb-15 23:00N 37°40' W 122°23'11 2.0
2018-Feb-15 17:27N 37°50' W 122°19'1022.3
2018-Feb-15 17:00N 37°41' W 122°22'714.1
2018-Feb-15 16:31N 37°48' W 122°21'4 8.9
2018-Feb-15 16:00N 37°52' W 122°19'1224.5
2018-Feb-15 15:31N 37°40' W 122°22'917.1
2018-Feb-15 15:00N 37°48' W 122°23'815.3
2018-Feb-15 14:31N 37°55' W 122°29'1425.3
2018-Feb-15 13:58N 38°04' W 122°15'5 9.5
2018-Feb-15 13:28N 38°02' W 122°09'1122.8
2018-Feb-15 13:00N 38°01' W 122°23'1121.2
2018-Feb-15 12:30N 37°51' W 122°20'1 0.1
2018-Feb-15 03:41N 37°50' W 122°19'0 0.0
2018-Feb-15 03:30N 37°50' W 122°19'2 3.4
2018-Feb-15 03:01N 37°52' W 122°19'1223.6
2018-Feb-15 02:30N 37°40' W 122°22'0 0.3
2018-Feb-15 02:00N 37°40' W 122°22'1529.5
2018-Feb-15 01:30N 37°55' W 122°25'1224.0
2018-Feb-15 01:01N 38°04' W 122°15'1 2.4
2018-Feb-15 00:30N 38°03' W 122°16'1324.6
2018-Feb-14 23:59N 37°55' W 122°28'1122.6
2018-Feb-14 23:31N 37°45' W 122°22'6 9.3
2018-Feb-14 22:54N 37°40' W 122°23'1 1.9
2018-Feb-14 22:31N 37°40' W 122°22'1121.3
2018-Feb-14 22:00N 37°50' W 122°19'0 0.0
2018-Feb-14 17:30N 37°50' W 122°19'1021.3
2018-Feb-14 17:01N 37°40' W 122°22'714.6
2018-Feb-14 16:30N 37°48' W 122°22'5 9.4
2018-Feb-14 16:01N 37°52' W 122°19'1122.6
2018-Feb-14 15:30N 37°41' W 122°22'714.3
2018-Feb-14 15:01N 37°48' W 122°23'816.6
2018-Feb-14 14:30N 37°55' W 122°29'1224.3
2018-Feb-14 14:00N 38°03' W 122°17'610.2
2018-Feb-14 13:25N 38°02' W 122°10'922.6
2018-Feb-14 13:01N 38°02' W 122°21'1020.4
2018-Feb-14 12:31N 37°51' W 122°22'3 0.3
2018-Feb-14 03:37N 37°50' W 122°19'0 0.4
2018-Feb-14 03:30N 37°50' W 122°19'2 3.4
2018-Feb-14 03:01N 37°52' W 122°19'1223.9
2018-Feb-14 02:31N 37°40' W 122°22'1 1.2
2018-Feb-14 02:00N 37°40' W 122°23'  

Dump ship's entire track history